Time;durP1;ratioP1;P1;durP2;ratioP2;P2;SDS_P1;SDS_P2;PMS_P1;PMS_P2;Temp;Humidity;BMP_temperature;BMP_pressure;BME280_temperature;BME280_humidity;BME280_pressure;Samples;Min_cycle;Max_cycle;Signal;HPM_P1;HPM_P2
2021/09/15 00:00:47;;;;;;;8.25;6.93;;;19.20;99.90;;;;;;5053212;28;20029;-88
2021/09/15 00:03:13;;;;;;;7.93;7.07;;;19.20;99.90;;;;;;5071604;28;20431;-87
2021/09/15 00:05:38;;;;;;;7.15;6.45;;;19.20;99.90;;;;;;5053614;28;20036;-87
2021/09/15 00:08:04;;;;;;;8.43;7.45;;;19.20;99.90;;;;;;5053682;28;20032;-87
2021/09/15 00:10:30;;;;;;;7.90;7.10;;;19.20;99.90;;;;;;5053001;28;20401;-88
2021/09/15 00:12:55;;;;;;;8.45;7.57;;;19.20;99.90;;;;;;5053478;28;20051;-88
2021/09/15 00:15:21;;;;;;;8.98;8.02;;;19.20;99.90;;;;;;5056574;28;20032;-88
2021/09/15 00:17:47;;;;;;;9.45;7.88;;;19.20;99.90;;;;;;5057542;28;20025;-88
2021/09/15 00:20:12;;;;;;;9.40;8.27;;;19.20;99.90;;;;;;5074760;28;20028;-88
2021/09/15 00:22:38;;;;;;;9.65;8.50;;;19.20;99.90;;;;;;5075121;28;20032;-87
2021/09/15 00:25:04;;;;;;;9.20;8.20;;;19.20;99.90;;;;;;5057281;28;20055;-88
2021/09/15 00:27:29;;;;;;;10.30;8.18;;;19.20;99.90;;;;;;5057125;28;20393;-87
2021/09/15 00:29:55;;;;;;;9.82;8.65;;;19.20;99.90;;;;;;5056677;28;20031;-87
2021/09/15 00:32:21;;;;;;;9.38;8.38;;;19.20;99.90;;;;;;5057125;28;20112;-88
2021/09/15 00:34:46;;;;;;;9.23;8.23;;;19.20;99.90;;;;;;5057144;28;20052;-86
2021/09/15 00:37:12;;;;;;;10.23;8.50;;;19.20;99.90;;;;;;5057144;28;20060;-88
2021/09/15 00:39:38;;;;;;;10.63;8.50;;;19.20;99.90;;;;;;5074295;28;20033;-87
2021/09/15 00:42:04;;;;;;;9.63;8.20;;;19.20;99.90;;;;;;5074859;28;20460;-88
2021/09/15 00:44:30;;;;;;;8.98;8.07;;;19.20;99.90;;;;;;5056877;28;20050;-87
2021/09/15 00:46:55;;;;;;;9.43;8.05;;;19.10;99.90;;;;;;5056931;28;20554;-87
2021/09/15 00:49:21;;;;;;;11.32;8.27;;;19.20;99.90;;;;;;5056270;28;20052;-87
2021/09/15 00:51:47;;;;;;;10.63;8.10;;;19.10;99.90;;;;;;5056803;28;20020;-88
2021/09/15 00:54:15;;;;;;;8.90;8.00;;;19.10;99.90;;;;;;5074641;28;20033;-87
2021/09/15 00:56:41;;;;;;;9.20;8.13;;;19.10;99.90;;;;;;5074821;28;20025;-87
2021/09/15 00:59:06;;;;;;;9.38;8.35;;;19.10;99.90;;;;;;5056148;28;20398;-87
2021/09/15 01:01:32;;;;;;;9.82;8.25;;;19.10;99.90;;;;;;5056540;28;20033;-87
2021/09/15 01:04:00;;;;;;;8.50;7.60;;;19.10;99.90;;;;;;5056556;28;20024;-87
2021/09/15 01:06:28;;;;;;;9.40;7.95;;;19.20;99.90;;;;;;5074452;28;20029;-88
2021/09/15 01:08:55;;;;;;;9.05;8.15;;;19.10;99.90;;;;;;5073863;28;20024;-88
2021/09/15 01:11:21;;;;;;;8.82;7.70;;;19.10;99.90;;;;;;5074660;28;20073;-87
2021/09/15 01:13:46;;;;;;;8.75;7.68;;;19.10;99.90;;;;;;5056301;28;20452;-87
2021/09/15 01:16:12;;;;;;;8.77;7.80;;;19.20;99.90;;;;;;5056335;28;20489;-87
2021/09/15 01:18:38;;;;;;;9.82;8.20;;;19.10;99.90;;;;;;5056272;28;20064;-87
2021/09/15 01:21:07;;;;;;;9.38;8.38;;;19.10;99.90;;;;;;5055821;28;20074;-87
2021/09/15 01:23:33;;;;;;;9.23;8.20;;;19.10;99.90;;;;;;5056169;28;20499;-87
2021/09/15 01:25:59;;;;;;;9.68;7.93;;;19.10;99.90;;;;;;5072889;28;20025;-87
2021/09/15 01:28:24;;;;;;;9.20;8.07;;;19.10;99.90;;;;;;5074050;28;20453;-88
2021/09/15 01:30:50;;;;;;;9.30;8.23;;;19.10;99.90;;;;;;5055394;28;20024;-87
2021/09/15 01:33:17;;;;;;;9.35;8.32;;;19.20;99.90;;;;;;5056008;28;20024;-87
2021/09/15 01:35:44;;;;;;;9.63;8.32;;;19.10;99.90;;;;;;5055908;28;20078;-87
2021/09/15 01:38:10;;;;;;;9.50;8.50;;;19.20;99.90;;;;;;5055947;28;20116;-88
2021/09/15 01:40:36;;;;;;;9.07;7.95;;;19.10;99.90;;;;;;5073353;28;20436;-87
2021/09/15 01:43:01;;;;;;;8.90;7.78;;;19.20;99.90;;;;;;5073714;28;20029;-87
2021/09/15 01:45:27;;;;;;;9.80;7.35;;;19.20;99.90;;;;;;5055554;28;20036;-87
2021/09/15 01:47:53;;;;;;;9.32;8.32;;;19.20;99.90;;;;;;5073507;28;20024;-87
2021/09/15 01:50:18;;;;;;;10.45;8.90;;;19.20;99.90;;;;;;5055069;28;20017;-87
2021/09/15 01:52:44;;;;;;;10.35;8.85;;;19.20;99.90;;;;;;5073550;28;20024;-88
2021/09/15 01:55:27;;;;;;;10.43;9.27;;;19.10;99.90;;;;;;5073401;28;20485;-87
2021/09/15 01:57:54;;;;;;;10.45;9.23;;;19.20;99.90;;;;;;5055493;28;20032;-87
2021/09/15 02:00:20;;;;;;;9.77;8.77;;;19.10;99.90;;;;;;5054821;28;20039;-87
2021/09/15 02:02:48;;;;;;;10.52;8.98;;;19.10;99.90;;;;;;5055381;28;20489;-87
2021/09/15 02:05:13;;;;;;;10.23;9.10;;;19.10;99.90;;;;;;5055381;28;20025;-87
2021/09/15 02:07:39;;;;;;;11.30;10.05;;;19.10;99.90;;;;;;5073226;28;20416;-87
2021/09/15 02:10:05;;;;;;;11.35;9.48;;;19.10;99.90;;;;;;5072531;28;20024;-87
2021/09/15 02:12:31;;;;;;;11.23;10.07;;;19.10;99.90;;;;;;5073055;28;20020;-87
2021/09/15 02:14:57;;;;;;;10.75;9.65;;;19.10;99.90;;;;;;5073117;28;20021;-88
2021/09/15 02:17:22;;;;;;;11.23;10.05;;;19.10;99.90;;;;;;5055284;28;20488;-87
2021/09/15 02:19:48;;;;;;;11.98;9.45;;;19.10;99.90;;;;;;5054629;28;20088;-88
2021/09/15 02:22:13;;;;;;;11.45;9.75;;;19.10;99.90;;;;;;5055048;28;20362;-88
2021/09/15 02:24:39;;;;;;;13.20;9.73;;;19.10;99.90;;;;;;5072886;28;20527;-88
2021/09/15 02:27:05;;;;;;;11.23;9.98;;;19.00;99.90;;;;;;5072836;28;20074;-88
2021/09/15 02:29:30;;;;;;;15.98;10.18;;;19.10;99.90;;;;;;5072260;28;20016;-87
2021/09/15 02:31:56;;;;;;;11.68;10.23;;;19.10;99.90;;;;;;5072801;28;20055;-87
2021/09/15 02:34:22;;;;;;;12.57;10.48;;;19.00;99.90;;;;;;5054783;28;20425;-87
2021/09/15 02:36:47;;;;;;;15.73;11.00;;;19.00;99.90;;;;;;5054628;28;20029;-87
2021/09/15 02:39:13;;;;;;;10.55;9.45;;;19.00;99.90;;;;;;5054114;28;20043;-87
2021/09/15 02:41:39;;;;;;;13.93;10.75;;;19.00;99.90;;;;;;5054669;28;20027;-88
2021/09/15 02:44:04;;;;;;;11.35;9.85;;;19.10;99.90;;;;;;5072375;28;20317;-87
2021/09/15 02:46:31;;;;;;;11.88;9.18;;;19.10;99.90;;;;;;5054613;28;20024;-87
2021/09/15 02:48:58;;;;;;;11.77;9.07;;;19.10;99.90;;;;;;5071901;28;20017;-87
2021/09/15 02:51:23;;;;;;;12.45;9.95;;;19.10;99.90;;;;;;5054490;28;20407;-88
2021/09/15 02:53:49;;;;;;;10.85;9.75;;;19.10;99.90;;;;;;5071528;28;20020;-88
2021/09/15 02:56:15;;;;;;;12.55;10.27;;;19.10;99.90;;;;;;5071198;28;20028;-87
2021/09/15 02:58:40;;;;;;;10.98;9.57;;;19.10;99.90;;;;;;5072214;28;20044;-88
2021/09/15 03:01:06;;;;;;;10.63;9.52;;;19.10;99.90;;;;;;5053802;28;20021;-88
2021/09/15 03:03:32;;;;;;;12.05;9.65;;;19.10;99.90;;;;;;5054457;28;20385;-87
2021/09/15 03:05:57;;;;;;;10.50;9.30;;;19.10;99.90;;;;;;5054302;28;20108;-87
2021/09/15 03:08:25;;;;;;;10.90;9.75;;;19.10;99.90;;;;;;5054214;28;20386;-87
2021/09/15 03:10:51;;;;;;;13.18;10.13;;;19.10;99.90;;;;;;5053579;28;20020;-88
2021/09/15 03:13:17;;;;;;;12.27;10.18;;;19.10;99.90;;;;;;5054262;28;20456;-87
2021/09/15 03:15:42;;;;;;;12.40;10.15;;;19.10;99.90;;;;;;5072351;28;20437;-87
2021/09/15 03:18:08;;;;;;;12.15;10.15;;;19.10;99.90;;;;;;5054193;28;20025;-87
2021/09/15 03:20:33;;;;;;;11.63;9.73;;;19.10;99.90;;;;;;5053429;28;20036;-87
2021/09/15 03:22:59;;;;;;;12.63;10.23;;;19.10;99.90;;;;;;5054057;28;20501;-88
2021/09/15 03:25:25;;;;;;;11.65;9.60;;;19.10;99.90;;;;;;5071887;28;20032;-87
2021/09/15 03:27:51;;;;;;;11.30;10.10;;;19.10;99.90;;;;;;5054070;28;20086;-87
2021/09/15 03:30:16;;;;;;;13.40;11.25;;;19.10;99.90;;;;;;5053668;28;20028;-87
2021/09/15 03:32:42;;;;;;;12.50;10.30;;;19.10;99.90;;;;;;5053533;28;20547;-87
2021/09/15 03:35:08;;;;;;;12.15;9.88;;;19.10;99.90;;;;;;5053906;28;20017;-87
2021/09/15 03:37:34;;;;;;;12.45;10.18;;;19.10;99.90;;;;;;5053904;28;20073;-88
2021/09/15 03:39:59;;;;;;;11.18;9.98;;;19.10;99.90;;;;;;5071218;28;20103;-87
2021/09/15 03:42:25;;;;;;;11.13;9.70;;;19.10;99.90;;;;;;5053644;28;20180;-88
2021/09/15 03:44:51;;;;;;;11.30;9.25;;;19.10;99.90;;;;;;5071533;28;20052;-87
2021/09/15 03:47:16;;;;;;;10.85;9.68;;;19.20;99.90;;;;;;5053783;28;20032;-88
2021/09/15 03:49:42;;;;;;;10.95;9.82;;;19.10;99.90;;;;;;5073359;28;20031;-88
2021/09/15 03:52:08;;;;;;;13.00;10.15;;;19.10;99.90;;;;;;5057822;28;20107;-87
2021/09/15 03:54:35;;;;;;;11.85;10.20;;;19.20;99.90;;;;;;5057743;28;20366;-87
2021/09/15 03:57:01;;;;;;;12.15;10.00;;;19.20;99.90;;;;;;5057749;28;20049;-87
2021/09/15 03:59:26;;;;;;;11.20;9.57;;;19.20;99.90;;;;;;5057461;28;20056;-87
2021/09/15 04:01:52;;;;;;;12.25;9.88;;;19.10;99.90;;;;;;5057671;28;20043;-87
2021/09/15 04:04:17;;;;;;;12.27;10.18;;;19.20;99.90;;;;;;5057682;28;20499;-87
2021/09/15 04:06:43;;;;;;;10.60;9.50;;;19.10;99.90;;;;;;5057450;28;20043;-87
2021/09/15 04:09:08;;;;;;;11.02;9.75;;;19.20;99.90;;;;;;5074957;28;20016;-87
2021/09/15 04:11:34;;;;;;;11.90;10.68;;;19.10;99.90;;;;;;5075368;28;20431;-87
2021/09/15 04:14:00;;;;;;;11.10;9.90;;;19.20;99.90;;;;;;5057473;28;20032;-87
2021/09/15 04:16:26;;;;;;;11.88;9.98;;;19.10;99.90;;;;;;5075433;28;20470;-88
2021/09/15 04:18:51;;;;;;;12.05;10.48;;;19.20;99.90;;;;;;5057026;28;20393;-87
2021/09/15 04:21:17;;;;;;;12.70;10.77;;;19.20;99.90;;;;;;5056990;28;20520;-87
2021/09/15 04:23:56;;;;;;;12.75;11.20;;;19.10;99.90;;;;;;5057198;28;20020;-87
2021/09/15 04:31:50;;;;;;;13.00;10.27;;;19.20;99.90;;;;;;5075328;28;20036;-87
2021/09/15 04:34:15;;;;;;;12.98;10.40;;;19.20;99.90;;;;;;5057051;28;20477;-87
2021/09/15 04:36:41;;;;;;;13.05;10.27;;;19.20;99.90;;;;;;5075133;28;20520;-87
2021/09/15 04:39:06;;;;;;;11.43;9.88;;;19.10;99.90;;;;;;5056619;28;20067;-87
2021/09/15 04:41:32;;;;;;;12.07;10.75;;;19.20;99.90;;;;;;5056943;28;20070;-87
2021/09/15 04:43:58;;;;;;;12.45;10.52;;;19.20;99.90;;;;;;5056859;28;20385;-88
2021/09/15 04:46:23;;;;;;;12.50;10.63;;;19.10;99.90;;;;;;5056943;28;20442;-87
2021/09/15 04:48:50;;;;;;;16.70;11.57;;;19.20;99.90;;;;;;5056510;28;20024;-87
2021/09/15 04:51:15;;;;;;;13.57;12.10;;;19.10;99.90;;;;;;5074518;28;20020;-87
2021/09/15 04:53:41;;;;;;;13.68;11.35;;;19.10;99.90;;;;;;5073383;28;20027;-87
2021/09/15 04:56:07;;;;;;;14.48;12.30;;;19.10;99.90;;;;;;5056903;28;20029;-87
2021/09/15 04:58:32;;;;;;;13.38;11.35;;;19.10;99.90;;;;;;5074604;28;20040;-87
2021/09/15 05:00:58;;;;;;;14.15;11.98;;;19.10;99.90;;;;;;5073817;28;20032;-87
2021/09/15 05:03:24;;;;;;;15.00;12.52;;;19.10;99.90;;;;;;5074355;28;20048;-87
2021/09/15 05:05:49;;;;;;;15.75;13.15;;;19.10;99.90;;;;;;5056412;28;20025;-87
2021/09/15 05:08:15;;;;;;;16.48;13.27;;;19.10;99.90;;;;;;5056512;28;20028;-87
2021/09/15 05:10:41;;;;;;;16.60;14.10;;;19.10;99.90;;;;;;5073934;28;20027;-87
2021/09/15 05:13:06;;;;;;;15.48;12.73;;;19.10;99.90;;;;;;5056285;28;20389;-87
2021/09/15 05:15:32;;;;;;;16.95;14.13;;;19.10;99.90;;;;;;5073110;28;20036;-87
2021/09/15 05:17:58;;;;;;;17.13;13.85;;;19.10;99.90;;;;;;5074780;28;20032;-87
2021/09/15 05:20:23;;;;;;;16.17;13.95;;;19.10;99.90;;;;;;5073892;28;20029;-87
2021/09/15 05:22:52;;;;;;;16.30;14.10;;;19.00;99.90;;;;;;5056176;28;20473;-87
2021/09/15 05:25:20;;;;;;;17.00;14.10;;;19.10;99.90;;;;;;5056183;28;20028;-87
2021/09/15 05:27:46;;;;;;;16.73;14.45;;;19.10;99.90;;;;;;5056269;28;20120;-87
2021/09/15 05:30:13;;;;;;;19.60;14.23;;;19.00;99.90;;;;;;5074257;28;20092;-87
2021/09/15 05:32:39;;;;;;;20.20;15.02;;;19.10;99.90;;;;;;5074631;28;20032;-87
2021/09/15 05:35:08;;;;;;;16.83;14.10;;;19.00;99.90;;;;;;5074265;28;20028;-87
2021/09/15 05:37:33;;;;;;;;;;;19.10;99.90;;;;;;5074422;28;20541;-87
2021/09/15 05:39:59;;;;;;;16.77;14.52;;;19.00;99.90;;;;;;5073471;28;19951;-87
2021/09/15 05:42:26;;;;;;;15.60;13.85;;;19.10;99.90;;;;;;5056085;28;20029;-87
2021/09/15 05:44:51;;;;;;;16.52;13.82;;;19.10;99.90;;;;;;5074587;28;20036;-86
2021/09/15 05:47:17;;;;;;;16.50;13.98;;;19.10;99.90;;;;;;5055867;28;20025;-86
2021/09/15 05:49:43;;;;;;;17.05;14.50;;;19.00;99.90;;;;;;5055330;28;20107;-87
2021/09/15 05:52:09;;;;;;;15.85;13.73;;;19.10;99.90;;;;;;5055669;28;20497;-87
2021/09/15 05:54:35;;;;;;;16.95;13.73;;;19.10;99.90;;;;;;5073418;28;20082;-86
2021/09/15 05:57:00;;;;;;;17.58;13.98;;;19.10;99.90;;;;;;5073517;28;20070;-87
2021/09/15 05:59:26;;;;;;;16.83;13.70;;;19.10;99.90;;;;;;5055318;28;20063;-87
2021/09/15 06:01:51;;;;;;;16.42;13.57;;;19.10;99.90;;;;;;5055398;28;20024;-86
2021/09/15 06:04:17;;;;;;;20.70;15.38;;;19.10;99.90;;;;;;5073561;28;20029;-86
2021/09/15 06:06:43;;;;;;;19.80;16.27;;;19.10;99.90;;;;;;5055392;28;20058;-87
2021/09/15 06:09:08;;;;;;;20.85;16.67;;;19.10;99.90;;;;;;5056020;28;20056;-86
2021/09/15 06:11:34;;;;;;;33.33;17.88;;;19.10;99.90;;;;;;5072317;28;20469;-87
2021/09/15 06:13:59;;;;;;;20.88;16.15;;;19.20;99.90;;;;;;5056973;28;20028;-86
2021/09/15 06:16:25;;;;;;;18.63;15.98;;;19.10;99.90;;;;;;5056481;28;20071;-86
2021/09/15 06:18:51;;;;;;;23.23;18.98;;;19.10;99.90;;;;;;5055452;28;20016;-86
2021/09/15 06:21:17;;;;;;;25.15;20.15;;;19.10;99.90;;;;;;5054940;28;20025;-86
2021/09/15 06:23:44;;;;;;;25.17;21.20;;;19.20;99.90;;;;;;5071752;28;20031;-86
2021/09/15 06:26:10;;;;;;;27.15;23.08;;;19.20;99.90;;;;;;5055149;28;20025;-86
2021/09/15 06:28:35;;;;;;;27.23;22.42;;;19.30;99.90;;;;;;5072885;28;20043;-86
2021/09/15 06:31:02;;;;;;;26.98;22.52;;;19.20;99.90;;;;;;5071187;28;20046;-86
2021/09/15 06:33:28;;;;;;;24.85;22.15;;;19.20;99.90;;;;;;5054867;28;20473;-86
2021/09/15 06:35:54;;;;;;;24.95;21.75;;;19.20;99.90;;;;;;5072731;28;20491;-86
2021/09/15 06:38:20;;;;;;;27.17;22.25;;;19.20;99.90;;;;;;5054896;28;20481;-86
2021/09/15 06:40:46;;;;;;;31.65;24.52;;;19.20;99.90;;;;;;5054419;28;20082;-86
2021/09/15 06:43:11;;;;;;;30.52;24.17;;;19.20;99.90;;;;;;5054718;28;20047;-86
2021/09/15 06:45:37;;;;;;;27.00;22.25;;;19.20;99.90;;;;;;5054479;28;20488;-86
2021/09/15 06:48:03;;;;;;;27.42;21.88;;;19.10;99.90;;;;;;5054495;28;20485;-86
2021/09/15 06:50:29;;;;;;;29.05;23.90;;;19.20;99.90;;;;;;5054321;28;20046;-86
2021/09/15 06:52:55;;;;;;;28.85;21.77;;;19.10;99.90;;;;;;5054592;28;20024;-86
2021/09/15 06:55:23;;;;;;;25.35;20.10;;;19.10;99.90;;;;;;5072444;28;20016;-86
2021/09/15 06:57:50;;;;;;;24.25;19.40;;;19.10;99.90;;;;;;5054561;28;20493;-87
2021/09/15 07:00:18;;;;;;;25.35;19.42;;;19.10;99.90;;;;;;5053937;28;20121;-86
2021/09/15 07:02:44;;;;;;;22.30;18.77;;;19.10;99.90;;;;;;5054284;28;20036;-86
2021/09/15 07:05:10;;;;;;;23.90;19.05;;;19.10;99.90;;;;;;5072163;28;20485;-86
2021/09/15 07:07:35;;;;;;;25.88;19.58;;;19.10;99.90;;;;;;5054194;28;20032;-86
2021/09/15 07:10:02;;;;;;;18.27;15.45;;;19.10;99.90;;;;;;5053865;28;20064;-86
2021/09/15 07:12:27;;;;;;;23.25;17.65;;;19.10;99.90;;;;;;5054733;28;20111;-86
2021/09/15 07:14:53;;;;;;;20.08;17.60;;;19.10;99.90;;;;;;5054210;28;20075;-86
2021/09/15 07:17:19;;;;;;;19.15;16.73;;;19.10;99.90;;;;;;5054203;28;20416;-86
2021/09/15 07:19:44;;;;;;;20.88;16.58;;;19.10;99.90;;;;;;5070508;28;20059;-86
2021/09/15 07:22:10;;;;;;;20.40;15.85;;;19.10;99.90;;;;;;5071999;28;20033;-87
2021/09/15 07:24:35;;;;;;;20.85;16.70;;;19.10;99.90;;;;;;5053175;28;20024;-86
2021/09/15 07:27:01;;;;;;;18.58;15.90;;;19.10;99.90;;;;;;5053968;28;20071;-87
2021/09/15 07:29:27;;;;;;;25.20;18.50;;;19.10;99.90;;;;;;5071814;28;20048;-86
2021/09/15 07:31:53;;;;;;;22.42;17.42;;;19.10;99.90;;;;;;5053937;28;20480;-86
2021/09/15 07:34:19;;;;;;;20.45;16.35;;;19.10;99.90;;;;;;5054121;28;20116;-86
2021/09/15 07:36:44;;;;;;;20.30;14.82;;;19.10;99.90;;;;;;5054030;28;20510;-86
2021/09/15 07:39:10;;;;;;;19.25;14.90;;;19.10;99.90;;;;;;5053607;28;20032;-87
2021/09/15 07:41:35;;;;;;;19.30;15.38;;;19.10;99.90;;;;;;5053865;28;20033;-86
2021/09/15 07:44:01;;;;;;;22.73;16.98;;;19.10;99.90;;;;;;5071731;28;20041;-86
2021/09/15 07:46:27;;;;;;;19.85;16.80;;;19.10;99.90;;;;;;5053852;28;20493;-86
2021/09/15 07:48:53;;;;;;;20.75;16.73;;;19.10;99.90;;;;;;5053627;28;20032;-86
2021/09/15 07:51:19;;;;;;;19.58;15.77;;;19.20;99.90;;;;;;5053765;28;20048;-86
2021/09/15 07:53:45;;;;;;;22.60;17.60;;;19.20;99.90;;;;;;5053824;28;20031;-86
2021/09/15 07:56:11;;;;;;;22.92;17.42;;;19.20;99.90;;;;;;5072267;28;20384;-86
2021/09/15 07:58:37;;;;;;;21.88;17.55;;;19.20;99.90;;;;;;5072034;28;20033;-86
2021/09/15 08:01:03;;;;;;;24.73;18.48;;;19.20;99.90;;;;;;5071349;28;20036;-86
2021/09/15 08:03:29;;;;;;;24.75;17.52;;;19.20;99.90;;;;;;5053653;28;20028;-86
2021/09/15 08:05:56;;;;;;;25.00;18.20;;;19.20;99.90;;;;;;5053606;28;20029;-86
2021/09/15 08:08:22;;;;;;;24.48;17.70;;;19.20;99.90;;;;;;5070474;28;20039;-87
2021/09/15 08:10:47;;;;;;;22.67;18.50;;;19.20;99.90;;;;;;5071321;28;20456;-87
2021/09/15 08:13:13;;;;;;;25.50;19.48;;;19.20;99.90;;;;;;5071449;28;20031;-86
2021/09/15 08:15:38;;;;;;;23.52;19.48;;;19.20;99.90;;;;;;5071472;28;20028;-86
2021/09/15 08:18:04;;;;;;;22.65;17.67;;;19.20;99.90;;;;;;5053748;28;20396;-86
2021/09/15 08:20:30;;;;;;;24.58;19.45;;;19.20;99.90;;;;;;5071310;28;20032;-86
2021/09/15 08:22:56;;;;;;;19.23;15.85;;;19.20;99.90;;;;;;5053530;28;20033;-86
2021/09/15 08:25:22;;;;;;;25.02;19.48;;;19.20;99.90;;;;;;5053433;28;20503;-86
2021/09/15 08:27:48;;;;;;;20.50;17.20;;;19.20;99.90;;;;;;5053427;28;20052;-86
2021/09/15 08:30:14;;;;;;;20.48;16.65;;;19.20;99.90;;;;;;5053195;28;20025;-86
2021/09/15 08:32:39;;;;;;;24.45;18.40;;;19.20;99.90;;;;;;5053274;28;20498;-87
2021/09/15 08:35:06;;;;;;;26.20;19.50;;;19.30;99.90;;;;;;5072221;28;20020;-86
2021/09/15 08:37:36;;;;;;;23.10;18.17;;;19.30;99.90;;;;;;5075040;28;20064;-86
2021/09/15 08:40:04;;;;;;;24.75;18.38;;;19.30;99.90;;;;;;5056744;28;20481;-86
2021/09/15 08:42:29;;;;;;;23.00;17.23;;;19.30;99.90;;;;;;5074958;28;20064;-86
2021/09/15 08:44:55;;;;;;;23.80;17.63;;;19.30;99.90;;;;;;5074774;28;20125;-86
2021/09/15 08:47:25;;;;;;;25.25;17.55;;;19.30;99.90;;;;;;5074846;28;20036;-86
2021/09/15 08:49:51;;;;;;;26.63;18.63;;;19.30;99.90;;;;;;5056542;28;20035;-86
2021/09/15 08:52:17;;;;;;;23.80;17.30;;;19.40;99.90;;;;;;5056824;28;20025;-86
2021/09/15 08:54:42;;;;;;;22.90;16.85;;;19.30;99.90;;;;;;5056725;28;20030;-86
2021/09/15 08:57:08;;;;;;;23.40;18.48;;;19.30;99.90;;;;;;5074723;28;20051;-86
2021/09/15 08:59:33;;;;;;;20.15;15.48;;;19.40;99.90;;;;;;5073251;28;20031;-86
2021/09/15 09:02:06;;;;;;;20.58;15.75;;;19.40;99.90;;;;;;5056730;28;20028;-86
2021/09/15 09:04:49;;;;;;;21.73;16.33;;;19.40;99.90;;;;;;5056817;28;20048;-86
2021/09/15 09:07:15;;;;;;;20.40;15.52;;;19.30;99.90;;;;;;5056370;28;20033;-86
2021/09/15 09:09:48;;;;;;;17.58;14.50;;;19.40;99.90;;;;;;5056239;28;20090;-86
2021/09/15 09:12:18;;;;;;;21.05;15.00;;;19.40;99.90;;;;;;5056530;28;20035;-86
2021/09/15 09:14:44;;;;;;;21.63;15.63;;;19.40;99.90;;;;;;5074347;28;20032;-86
2021/09/15 09:17:33;;;;;;;21.38;16.42;;;19.40;99.90;;;;;;5056380;28;20036;-86
2021/09/15 09:20:31;;;;;;;20.80;15.60;;;19.40;99.90;;;;;;5056079;28;20100;-86
2021/09/15 09:23:05;;;;;;;22.10;16.13;;;19.40;99.90;;;;;;5056410;28;20079;-86
2021/09/15 09:25:36;;;;;;;29.35;19.35;;;19.40;99.90;;;;;;5074178;28;20503;-87
2021/09/15 09:28:16;;;;;;;24.17;17.42;;;19.40;99.90;;;;;;5056213;28;20024;-86
2021/09/15 09:30:42;;;;;;;24.48;17.63;;;19.40;99.90;;;;;;5056437;28;20017;-86
2021/09/15 09:33:08;;;;;;;22.20;15.93;;;19.40;99.90;;;;;;5072732;28;20035;-86
2021/09/15 09:35:43;;;;;;;23.02;16.02;;;19.40;99.90;;;;;;5074004;28;20028;-86
2021/09/15 09:38:30;;;;;;;21.30;15.68;;;19.40;99.90;;;;;;5074100;28;20025;-86
2021/09/15 09:41:15;;;;;;;22.30;16.50;;;19.50;99.90;;;;;;5055699;28;20028;-87
2021/09/15 09:43:54;;;;;;;17.38;12.98;;;19.60;99.90;;;;;;5055957;28;20131;-86
2021/09/15 09:46:29;;;;;;;15.77;12.15;;;19.60;99.90;;;;;;5073246;28;20032;-86
2021/09/15 09:48:56;;;;;;;13.77;9.60;;;19.60;99.90;;;;;;5055495;28;20024;-86
2021/09/15 09:51:38;;;;;;;10.95;8.77;;;19.70;99.90;;;;;;5055690;28;20469;-86
2021/09/15 09:54:20;;;;;;;8.40;6.63;;;19.70;99.90;;;;;;5055681;28;20073;-86
2021/09/15 09:56:50;;;;;;;7.82;6.10;;;19.70;99.90;;;;;;5073603;28;20025;-86
2021/09/15 09:59:17;;;;;;;12.40;7.15;;;19.70;99.90;;;;;;5055149;28;20024;-86
2021/09/15 10:01:45;;;;;;;8.18;5.80;;;19.80;99.90;;;;;;5055636;28;20025;-86
2021/09/15 10:04:13;;;;;;;7.18;5.43;;;19.80;99.90;;;;;;5055664;28;20024;-86
2021/09/15 10:06:41;;;;;;;9.40;6.10;;;19.80;99.90;;;;;;5055956;28;20477;-86
2021/09/15 10:09:07;;;;;;;6.75;5.80;;;19.80;99.90;;;;;;5055861;28;20386;-87
2021/09/15 10:11:35;;;;;;;8.13;5.18;;;19.80;99.90;;;;;;5074290;28;20485;-87
2021/09/15 10:14:02;;;;;;;5.45;4.57;;;19.90;99.90;;;;;;5056097;28;20051;-87
2021/09/15 10:16:28;;;;;;;4.28;3.83;;;19.80;99.90;;;;;;5056550;28;20029;-86
2021/09/15 10:19:06;;;;;;;4.50;3.70;;;19.90;99.90;;;;;;5055962;28;20016;-86
2021/09/15 10:21:34;;;;;;;6.38;4.20;;;19.90;99.90;;;;;;5055963;28;20473;-86
2021/09/15 10:24:01;;;;;;;5.15;3.92;;;19.90;99.90;;;;;;5073139;28;20099;-87
2021/09/15 10:26:32;;;;;;;5.72;3.90;;;19.90;99.90;;;;;;5055098;28;20036;-86
2021/09/15 10:29:20;;;;;;;4.30;3.42;;;19.80;99.90;;;;;;5072676;28;20497;-86
2021/09/15 10:31:49;;;;;;;4.72;3.53;;;19.90;99.90;;;;;;5073063;28;20024;-86
2021/09/15 10:34:39;;;;;;;5.55;3.97;;;19.80;99.90;;;;;;5072951;28;20021;-86
2021/09/15 10:37:10;;;;;;;4.63;3.83;;;19.80;99.90;;;;;;5054871;28;20036;-86
2021/09/15 10:39:58;;;;;;;5.55;4.03;;;19.80;99.90;;;;;;5054579;28;20490;-87
2021/09/15 10:42:39;;;;;;;5.22;3.85;;;19.80;99.90;;;;;;5054783;28;20032;-86
2021/09/15 10:45:11;;;;;;;4.97;3.72;;;19.80;99.90;;;;;;5072614;28;20040;-87
2021/09/15 10:47:46;;;;;;;6.00;4.30;;;19.80;99.90;;;;;;5054600;28;20477;-86
2021/09/15 10:50:33;;;;;;;6.57;5.10;;;19.80;99.90;;;;;;5054367;28;20052;-87
2021/09/15 10:53:07;;;;;;;5.65;4.97;;;19.80;99.90;;;;;;5072496;28;20469;-87
2021/09/15 10:55:47;;;;;;;7.03;6.32;;;19.80;99.90;;;;;;5054487;28;20115;-86
2021/09/15 10:58:13;;;;;;;10.55;5.90;;;19.90;99.90;;;;;;5054708;28;20431;-86
2021/09/15 11:00:53;;;;;;;9.07;5.85;;;19.90;99.90;;;;;;5054402;28;20115;-85
2021/09/15 11:03:33;;;;;;;8.98;7.15;;;19.90;99.90;;;;;;5054515;28;20031;-86
2021/09/15 11:06:07;;;;;;;11.45;8.20;;;19.90;99.90;;;;;;5072403;28;20021;-86
2021/09/15 11:08:50;;;;;;;10.05;8.68;;;19.90;99.90;;;;;;5054333;28;20123;-87
2021/09/15 11:11:19;;;;;;;10.43;8.63;;;19.90;99.90;;;;;;5054247;28;20394;-87
2021/09/15 11:14:02;;;;;;;10.93;8.35;;;19.90;99.90;;;;;;5072278;28;20035;-87
2021/09/15 11:16:39;;;;;;;10.57;9.07;;;19.90;99.90;;;;;;5072834;28;20030;-86
2021/09/15 11:19:14;;;;;;;11.88;9.57;;;20.00;99.90;;;;;;5053764;28;20021;-86
2021/09/15 11:22:00;;;;;;;10.35;8.60;;;20.00;99.90;;;;;;5054110;28;20486;-86
2021/09/15 11:24:31;;;;;;;11.88;9.30;;;20.00;99.90;;;;;;5071816;28;20041;-86
2021/09/15 11:27:06;;;;;;;12.25;9.98;;;20.00;99.90;;;;;;5054219;28;20047;-86
2021/09/15 11:29:53;;;;;;;12.50;10.15;;;20.00;99.90;;;;;;5071915;28;20024;-86
2021/09/15 11:32:20;;;;;;;13.32;9.80;;;20.10;99.90;;;;;;5071957;28;20040;-86
2021/09/15 11:34:48;;;;;;;14.50;9.65;;;20.10;99.90;;;;;;5054086;28;20032;-86
2021/09/15 11:37:20;;;;;;;14.53;11.80;;;20.00;99.90;;;;;;5072019;28;20379;-87
2021/09/15 11:39:56;;;;;;;15.52;11.90;;;20.10;99.90;;;;;;5054006;28;20655;-86
2021/09/15 11:42:27;;;;;;;16.27;11.88;;;20.00;99.90;;;;;;5053871;28;20028;-87
2021/09/15 11:44:52;;;;;;;16.30;13.18;;;20.00;99.90;;;;;;5072489;28;20032;-87
2021/09/15 11:47:23;;;;;;;16.90;13.90;;;20.00;99.90;;;;;;5053853;28;20474;-87
2021/09/15 11:49:49;;;;;;;16.88;13.90;;;20.10;99.90;;;;;;5053461;28;20051;-86
2021/09/15 11:52:15;;;;;;;15.20;12.30;;;20.10;99.90;;;;;;5072461;28;20021;-86
2021/09/15 11:54:42;;;;;;;16.75;13.70;;;20.10;99.90;;;;;;5054282;28;20020;-86
2021/09/15 11:57:09;;;;;;;15.80;12.98;;;20.10;99.90;;;;;;5054430;28;20131;-86
2021/09/15 11:59:35;;;;;;;14.50;11.85;;;20.10;99.90;;;;;;5053822;28;20032;-86
2021/09/15 12:02:05;;;;;;;15.75;12.52;;;20.10;99.90;;;;;;5054282;28;20033;-87
2021/09/15 12:04:33;;;;;;;14.27;12.27;;;20.10;99.90;;;;;;5054270;28;20025;-86
2021/09/15 12:06:59;;;;;;;17.73;14.18;;;20.10;99.90;;;;;;5072334;28;20028;-86
2021/09/15 12:09:25;;;;;;;18.35;15.35;;;20.10;99.90;;;;;;5053888;28;20025;-87
2021/09/15 12:11:51;;;;;;;21.23;15.57;;;20.10;99.90;;;;;;5058109;28;20166;-86
2021/09/15 12:14:17;;;;;;;19.48;15.73;;;20.10;99.90;;;;;;5058097;28;20024;-86
2021/09/15 12:16:43;;;;;;;22.80;16.40;;;20.10;99.90;;;;;;5075954;28;20384;-87
2021/09/15 12:19:19;;;;;;;19.92;15.60;;;20.10;99.90;;;;;;5075340;28;20489;-87
2021/09/15 12:21:46;;;;;;;27.88;18.00;;;20.10;99.90;;;;;;5057667;28;20082;-87
2021/09/15 12:24:14;;;;;;;31.52;17.95;;;20.10;99.90;;;;;;5057803;28;20497;-86
2021/09/15 12:26:40;;;;;;;28.90;16.70;;;20.20;99.90;;;;;;5075592;28;20090;-86
2021/09/15 12:29:09;;;;;;;30.83;16.92;;;20.20;99.90;;;;;;5057470;28;20042;-86
2021/09/15 12:31:40;;;;;;;;;;;20.30;99.90;;;;;;5057673;28;20035;-86
2021/09/15 12:34:07;;;;;;;27.58;16.13;;;20.30;99.90;;;;;;5074147;28;19905;-86
2021/09/15 12:36:33;;;;;;;25.77;15.02;;;20.40;99.90;;;;;;5057782;28;20025;-86
2021/09/15 12:39:01;;;;;;;21.15;14.68;;;20.40;99.90;;;;;;5056950;28;20527;-86
2021/09/15 12:41:29;;;;;;;17.17;14.88;;;20.40;99.90;;;;;;5057507;28;20024;-86